createdAt,value
2023-01-08T00:01:12.597Z,100241.38
2023-01-08T00:03:39.620Z,100249.75
2023-01-08T00:06:10.586Z,100252.88
2023-01-08T00:08:37.231Z,100260.44
2023-01-08T00:11:03.764Z,100259.72
2023-01-08T00:13:30.276Z,100255.31
2023-01-08T00:15:56.968Z,100259.16
2023-01-08T00:18:24.878Z,100259.31
2023-01-08T00:20:51.374Z,100257.59
2023-01-08T00:23:19.449Z,100252.34
2023-01-08T00:25:46.378Z,100241.69
2023-01-08T00:28:15.073Z,100240.84
2023-01-08T00:30:42.232Z,100246.09
2023-01-08T00:33:09.941Z,100237.84
2023-01-08T00:35:39.081Z,100232.47
2023-01-08T00:38:05.929Z,100233.31
2023-01-08T00:40:36.169Z,100231.59
2023-01-08T00:43:03.577Z,100229.75
2023-01-08T00:45:30.430Z,100215.25
2023-01-08T00:47:57.122Z,100219.53
2023-01-08T00:50:23.779Z,100215.13
2023-01-08T00:52:50.391Z,100224.78
2023-01-08T00:55:17.407Z,100217.53
2023-01-08T00:57:44.130Z,100211.13
2023-01-08T01:00:14.211Z,100208.44
2023-01-08T01:02:41.365Z,100210.28
2023-01-08T01:05:09.309Z,100208.28
2023-01-08T01:07:36.178Z,100207.28
2023-01-08T01:10:02.812Z,100197.47
2023-01-08T01:12:29.948Z,100203.88
2023-01-08T01:14:56.446Z,100199.47
2023-01-08T01:17:22.993Z,100198.63
2023-01-08T01:19:49.550Z,100196.78
2023-01-08T01:22:16.076Z,100195.94
2023-01-08T01:24:42.596Z,100189.69
2023-01-08T01:27:09.087Z,100193.22
2023-01-08T01:29:35.760Z,100182.44
2023-01-08T01:32:02.249Z,100184.13
2023-01-08T01:34:28.740Z,100196.63
2023-01-08T01:36:55.358Z,100189.38
2023-01-08T01:39:21.890Z,100184.69
2023-01-08T01:41:48.602Z,100177.59
2023-01-08T01:44:33.852Z,100171.63
2023-01-08T01:47:04.621Z,100181.72
2023-01-08T01:49:32.652Z,100188.13
2023-01-08T01:52:04.317Z,100186.41
2023-01-08T01:54:31.697Z,100185.44
2023-01-08T01:57:00.279Z,100185.44
2023-01-08T01:59:26.846Z,100190.81
2023-01-08T02:01:55.418Z,100195.22
2023-01-08T02:04:22.134Z,100194.38
2023-01-08T02:07:01.295Z,100197.78
2023-01-08T02:09:49.139Z,100209.44
2023-01-08T02:12:26.357Z,100211.84
2023-01-08T02:15:02.732Z,100212.69
2023-01-08T02:17:52.409Z,100217.22
2023-01-08T02:20:25.107Z,100227.03
2023-01-08T02:23:18.950Z,100217.53
2023-01-08T02:26:13.557Z,100208.31
2023-01-08T02:28:45.619Z,100196.41
2023-01-08T02:31:13.428Z,100192.88
2023-01-08T02:33:40.424Z,100198.56
2023-01-08T02:36:12.940Z,100190.50
2023-01-08T02:39:00.846Z,100181.41
2023-01-08T02:41:41.107Z,100185.97
2023-01-08T02:44:12.546Z,100180.84
2023-01-08T02:46:41.931Z,100170.31
2023-01-08T02:49:11.588Z,100156.41
2023-01-08T02:51:49.072Z,100157.84
2023-01-08T02:54:26.203Z,100152.72
2023-01-08T02:57:00.895Z,100152.72
2023-01-08T02:59:31.445Z,100153.16
2023-01-08T03:02:00.587Z,100158.81
2023-01-08T03:04:31.388Z,100155.53
2023-01-08T03:06:58.014Z,100166.59
2023-01-08T03:09:24.611Z,100152.69
2023-01-08T03:12:01.979Z,100162.06
2023-01-08T03:14:36.493Z,100161.22
2023-01-08T03:17:13.031Z,100158.66
2023-01-08T03:19:47.244Z,100166.88
2023-01-08T03:22:17.570Z,100159.94
2023-01-08T03:24:48.394Z,100153.69
2023-01-08T03:27:18.990Z,100147.31
2023-01-08T03:29:49.170Z,100151.72
2023-01-08T03:32:17.468Z,100149.72
2023-01-08T03:34:47.510Z,100153.13
2023-01-08T03:37:15.900Z,100152.13
2023-01-08T03:39:52.935Z,100156.09
2023-01-08T03:42:20.883Z,100154.69
2023-01-08T03:44:47.754Z,100155.81
2023-01-08T03:47:15.700Z,100146.16
2023-01-08T03:49:44.347Z,100143.47
2023-01-08T03:52:21.433Z,100142.75
2023-01-08T03:54:48.010Z,100138.78
2023-01-08T03:57:14.592Z,100138.22
2023-01-08T03:59:41.229Z,100133.09
2023-01-08T04:02:08.749Z,100134.38
2023-01-08T04:04:35.894Z,100133.53
2023-01-08T04:07:02.538Z,100119.34
2023-01-08T04:09:29.068Z,100129.28
2023-01-08T04:11:55.599Z,100126.81
2023-01-08T04:14:22.167Z,100126.97
2023-01-08T04:16:48.746Z,100131.25
2023-01-08T04:19:15.354Z,100119.59
2023-01-08T04:21:41.957Z,100116.78
2023-01-08T04:24:08.914Z,100114.81
2023-01-08T04:26:35.464Z,100115.81
2023-01-08T04:29:03.891Z,100109.56
2023-01-08T04:31:31.751Z,100112.13
2023-01-08T04:34:00.880Z,100109.28
2023-01-08T04:36:27.420Z,100105.03
2023-01-08T04:38:53.946Z,100098.78
2023-01-08T04:41:20.466Z,100097.09
2023-01-08T04:43:47.074Z,100082.03
2023-01-08T04:46:13.647Z,100084.00
2023-01-08T04:48:40.420Z,100086.97
2023-01-08T04:51:07.047Z,100083.31
2023-01-08T04:53:36.976Z,100074.50
2023-01-08T04:56:05.888Z,100069.97
2023-01-08T04:58:34.406Z,100053.09
2023-01-08T05:01:01.125Z,100056.66
2023-01-08T05:03:27.757Z,100059.34
2023-01-08T05:05:54.305Z,100066.44
2023-01-08T05:08:20.903Z,100079.63
2023-01-08T05:10:47.557Z,100087.41
2023-01-08T05:13:15.435Z,100078.09
2023-01-08T05:15:41.973Z,100076.25
2023-01-08T05:18:10.242Z,100080.66
2023-01-08T05:20:36.753Z,100068.88
2023-01-08T05:23:03.344Z,100082.19
2023-01-08T05:25:29.987Z,100086.59
2023-01-08T05:27:56.561Z,100083.06
2023-01-08T05:30:23.136Z,100092.97
2023-01-08T05:32:49.663Z,100086.88
2023-01-08T05:35:16.278Z,100074.69
2023-01-08T05:37:42.894Z,100072.94
2023-01-08T05:40:09.994Z,100076.50
2023-01-08T05:42:37.377Z,100074.69
2023-01-08T05:45:05.566Z,100062.19
2023-01-08T05:47:33.172Z,100072.09
2023-01-08T05:49:59.850Z,100069.41
2023-01-08T05:52:27.354Z,100062.91
2023-01-08T05:54:54.013Z,100064.63
2023-01-08T05:57:20.572Z,100062.78
2023-01-08T05:59:47.065Z,100059.94
2023-01-08T06:02:13.607Z,100059.94
2023-01-08T06:04:40.232Z,100046.47
2023-01-08T06:07:06.811Z,100052.84
2023-01-08T06:09:33.365Z,100057.81
2023-01-08T06:12:02.172Z,100058.81
2023-01-08T06:14:28.783Z,100069.72
2023-01-08T06:16:55.341Z,100075.81
2023-01-08T06:19:22.651Z,100081.91
2023-01-08T06:21:49.206Z,100087.16
2023-01-08T06:24:15.694Z,100084.34
2023-01-08T06:26:42.166Z,100095.25
2023-01-08T06:29:09.343Z,100095.53
2023-01-08T06:31:36.145Z,100101.06
2023-01-08T06:34:02.876Z,100105.03
2023-01-08T06:36:29.375Z,100099.88
2023-01-08T06:38:55.892Z,100094.78
2023-01-08T06:41:22.542Z,100108.53
2023-01-08T06:43:49.131Z,100116.03
2023-01-08T06:46:15.776Z,100116.72
2023-01-08T06:48:42.441Z,100114.59
2023-01-08T06:51:09.016Z,100115.72
2023-01-08T06:53:35.572Z,100117.84
2023-01-08T06:56:03.770Z,100115.44
2023-01-08T06:58:30.388Z,100121.34
2023-01-08T07:00:59.076Z,100122.63
2023-01-08T07:03:25.981Z,100121.34
2023-01-08T07:05:52.979Z,100126.13
2023-01-08T07:08:19.566Z,100115.06
2023-01-08T07:10:46.312Z,100121.13
2023-01-08T07:13:13.276Z,100112.75
2023-01-08T07:15:41.041Z,100117.78
2023-01-08T07:18:09.560Z,100114.88
2023-01-08T07:20:36.410Z,100112.88
2023-01-08T07:23:04.581Z,100115.22
2023-01-08T07:25:31.829Z,100117.47
2023-01-08T07:27:59.490Z,100116.88
2023-01-08T07:30:30.257Z,100116.28
2023-01-08T07:33:01.264Z,100104.81
2023-01-08T07:35:28.878Z,100107.06
2023-01-08T07:37:55.457Z,100103.91
2023-01-08T07:40:22.083Z,100108.69
2023-01-08T07:42:48.697Z,100117.16
2023-01-08T07:45:15.190Z,100112.06
2023-01-08T07:47:41.800Z,100118.53
2023-01-08T07:50:08.788Z,100111.72
2023-01-08T07:52:35.372Z,100111.84
2023-01-08T07:55:01.902Z,100123.09
2023-01-08T07:57:29.663Z,100122.25
2023-01-08T07:59:56.190Z,100124.06
2023-01-08T08:02:22.824Z,100119.69
2023-01-08T08:04:49.446Z,100122.50
2023-01-08T08:07:15.941Z,100114.69
2023-01-08T08:09:42.468Z,100110.44
2023-01-08T08:12:09.137Z,100111.53
2023-01-08T08:14:35.701Z,100113.63
2023-01-08T08:17:02.263Z,100111.34
2023-01-08T08:19:28.787Z,100108.78
2023-01-08T08:21:55.538Z,100105.00
2023-01-08T08:24:22.128Z,100096.81
2023-01-08T08:26:48.751Z,100095.81
2023-01-08T08:29:15.334Z,100078.47
2023-01-08T08:31:42.631Z,100086.00
2023-01-08T08:34:09.168Z,100085.59
2023-01-08T08:36:35.786Z,100078.88
2023-01-08T08:39:02.867Z,100082.53
2023-01-08T08:41:29.421Z,100075.22
2023-01-08T08:43:55.945Z,100081.31
2023-01-08T08:46:22.609Z,100080.31
2023-01-08T08:48:49.127Z,100077.09
2023-01-08T08:51:15.644Z,100091.59
2023-01-08T08:53:42.274Z,100090.66
2023-01-08T08:56:09.994Z,100078.84
2023-01-08T08:58:36.655Z,100071.41
2023-01-08T09:01:04.327Z,100069.63
2023-01-08T09:03:31.258Z,100062.00
2023-01-08T09:05:59.760Z,100059.88
2023-01-08T09:08:26.639Z,100058.78
2023-01-08T09:10:53.294Z,100051.44
2023-01-08T09:13:19.979Z,100053.84
2023-01-08T09:15:46.531Z,100051.16
2023-01-08T09:18:15.098Z,100051.16
2023-01-08T09:20:42.643Z,100056.81
2023-01-08T09:23:09.734Z,100068.09
2023-01-08T09:25:36.273Z,100062.84
2023-01-08T09:28:07.739Z,100072.91
2023-01-08T09:30:34.812Z,100070.47
2023-01-08T09:33:03.308Z,100070.75
2023-01-08T09:35:34.027Z,100059.38
2023-01-08T09:38:00.915Z,100059.38
2023-01-08T09:41:08.659Z,100061.34
2023-01-08T09:43:39.009Z,100060.94
2023-01-08T09:46:07.707Z,100050.94
2023-01-08T09:48:40.118Z,100054.34
2023-01-08T09:51:13.181Z,100053.34
2023-01-08T09:53:40.271Z,100039.75
2023-01-08T09:56:14.516Z,100037.66
2023-01-08T09:58:46.546Z,100052.56
2023-01-08T10:01:16.113Z,100038.84
2023-01-08T10:03:50.722Z,100045.66
2023-01-08T10:06:17.985Z,100044.38
2023-01-08T10:11:15.330Z,100034.31
2023-01-08T10:13:48.265Z,100032.50
2023-01-08T10:16:24.910Z,100031.50
2023-01-08T10:18:51.531Z,100024.13
2023-01-08T10:21:18.320Z,100023.28
2023-01-08T10:23:53.062Z,100013.22
2023-01-08T10:26:32.061Z,100006.72
2023-01-08T10:29:13.575Z,100010.97
2023-01-08T10:31:56.141Z,100015.94
2023-01-08T10:34:47.248Z,100011.13
2023-01-08T10:37:23.217Z,100005.19
2023-01-08T10:39:51.556Z,99998.38
2023-01-08T10:42:20.860Z,99991.59
2023-01-08T10:44:58.401Z,99984.78
2023-01-08T10:47:27.614Z,99980.09
2023-01-08T10:49:54.638Z,99982.66
2023-01-08T10:52:28.290Z,99984.34
2023-01-08T10:54:55.413Z,99976.84
2023-01-08T10:57:28.841Z,99975.84
2023-01-08T10:59:56.195Z,99962.22
2023-01-08T11:02:28.796Z,99957.56
2023-01-08T11:04:55.765Z,99956.41
2023-01-08T11:07:24.061Z,99948.19
2023-01-08T11:09:52.021Z,99951.34
2023-01-08T11:12:39.817Z,99944.22
2023-01-08T11:15:40.165Z,99940.22
2023-01-08T11:18:20.482Z,99939.59
2023-01-08T11:20:48.279Z,99941.56
2023-01-08T11:23:26.492Z,99932.00
2023-01-08T11:26:02.155Z,99940.00
2023-01-08T11:28:54.716Z,99934.50
2023-01-08T11:31:41.847Z,99922.72
2023-01-08T11:34:18.115Z,99926.59
2023-01-08T11:36:51.090Z,99911.56
2023-01-08T11:39:18.484Z,99908.47
2023-01-08T11:42:10.231Z,99909.09
2023-01-08T11:44:41.198Z,99899.22
2023-01-08T11:48:04.261Z,99899.91
2023-01-08T11:50:38.457Z,99891.63
2023-01-08T11:53:13.913Z,99885.22
2023-01-08T11:55:49.210Z,99882.03
2023-01-08T11:58:28.335Z,99892.06
2023-01-08T12:01:28.831Z,99885.13
2023-01-08T12:04:13.644Z,99872.25
2023-01-08T12:07:04.384Z,99876.91
2023-01-08T12:09:46.186Z,99878.84
2023-01-08T12:12:18.450Z,99878.38
2023-01-08T12:14:58.580Z,99876.63
2023-01-08T12:17:43.669Z,99878.47
2023-01-08T12:20:29.123Z,99867.69
2023-01-08T12:23:14.019Z,99873.13
2023-01-08T12:26:11.446Z,99869.66
2023-01-08T12:28:37.934Z,99861.97
2023-01-08T12:31:07.329Z,99856.94
2023-01-08T12:33:37.210Z,99859.63
2023-01-08T12:36:10.621Z,99854.59
2023-01-08T12:38:44.581Z,99847.88
2023-01-08T12:41:13.407Z,99851.78
2023-01-08T12:43:42.897Z,99851.63
2023-01-08T12:46:14.004Z,99845.75
2023-01-08T12:48:41.640Z,99852.38
2023-01-08T12:51:19.159Z,99840.19
2023-01-08T12:54:09.497Z,99847.91
2023-01-08T12:56:49.879Z,99847.72
2023-01-08T12:59:39.782Z,99839.41
2023-01-08T13:02:36.269Z,99837.34
2023-01-08T13:05:20.217Z,99836.97
2023-01-08T13:07:49.359Z,99826.75
2023-01-08T13:10:27.794Z,99825.91
2023-01-08T13:12:55.456Z,99825.44
2023-01-08T13:15:25.911Z,99825.28
2023-01-08T13:17:55.611Z,99820.59
2023-01-08T13:20:26.136Z,99819.44
2023-01-08T13:22:58.903Z,99817.72
2023-01-08T13:25:25.617Z,99813.00
2023-01-08T13:27:52.203Z,99815.72
2023-01-08T13:30:40.126Z,99804.53
2023-01-08T13:33:35.696Z,99806.69
2023-01-08T13:36:30.469Z,99798.22
2023-01-08T13:39:03.239Z,99792.28
2023-01-08T13:41:40.084Z,99781.47
2023-01-08T13:44:21.527Z,99777.41
2023-01-08T13:46:55.738Z,99780.25
2023-01-08T13:49:33.782Z,99769.44
2023-01-08T13:52:00.513Z,99772.69
2023-01-08T13:54:35.544Z,99773.69
2023-01-08T13:57:06.116Z,99770.13
2023-01-08T13:59:48.855Z,99772.16
2023-01-08T14:02:26.570Z,99771.47
2023-01-08T14:04:54.708Z,99775.66
2023-01-08T14:07:23.697Z,99770.41
2023-01-08T14:09:50.645Z,99770.56
2023-01-08T14:12:23.070Z,99769.16
2023-01-08T14:14:52.893Z,99767.47
2023-01-08T14:17:31.015Z,99765.75
2023-01-08T14:19:58.546Z,99759.50
2023-01-08T14:22:35.932Z,99755.13
2023-01-08T14:25:06.378Z,99760.34
2023-01-08T14:27:33.830Z,99750.56
2023-01-08T14:30:00.917Z,99756.97
2023-01-08T14:32:30.427Z,99746.16
2023-01-08T14:35:00.161Z,99731.97
2023-01-08T14:37:26.766Z,99728.75
2023-01-08T14:39:54.948Z,99726.22
2023-01-08T14:42:44.431Z,99704.78
2023-01-08T14:45:22.598Z,99716.75
2023-01-08T14:47:53.133Z,99717.06
2023-01-08T14:50:21.835Z,99714.50
2023-01-08T14:52:49.495Z,99710.28
2023-01-08T14:55:19.323Z,99712.13
2023-01-08T14:57:48.504Z,99702.50
2023-01-08T15:00:22.544Z,99709.22
2023-01-08T15:02:49.693Z,99705.81
2023-01-08T15:05:27.096Z,99703.59
2023-01-08T15:08:21.937Z,99694.13
2023-01-08T15:10:59.380Z,99694.75
2023-01-08T15:13:31.201Z,99693.53
2023-01-08T15:16:03.626Z,99689.44
2023-01-08T15:18:30.255Z,99682.81
2023-01-08T15:20:57.619Z,99676.38
2023-01-08T15:23:37.659Z,99683.34
2023-01-08T15:26:04.616Z,99678.72
2023-01-08T15:28:31.175Z,99674.81
2023-01-08T15:30:58.031Z,99676.81
2023-01-08T15:33:26.536Z,99666.75
2023-01-08T15:35:53.350Z,99664.69
2023-01-08T15:38:24.011Z,99658.38
2023-01-08T15:40:52.886Z,99664.53
2023-01-08T15:43:19.617Z,99663.28
2023-01-08T15:45:48.537Z,99662.03
2023-01-08T15:48:15.213Z,99667.03
2023-01-08T15:50:43.938Z,99658.03
2023-01-08T15:53:13.140Z,99663.69
2023-01-08T15:55:43.278Z,99663.13
2023-01-08T15:58:14.255Z,99656.34
2023-01-08T16:00:42.582Z,99668.28
2023-01-08T16:03:09.446Z,99666.88
2023-01-08T16:05:36.825Z,99667.47
2023-01-08T16:08:04.653Z,99666.94
2023-01-08T16:10:31.755Z,99668.78
2023-01-08T16:13:00.494Z,99667.38
2023-01-08T16:15:30.624Z,99673.91
2023-01-08T16:17:58.176Z,99667.13
2023-01-08T16:20:24.984Z,99671.09
2023-01-08T16:22:51.602Z,99660.78
2023-01-08T16:25:18.112Z,99659.53
2023-01-08T16:27:44.648Z,99661.53
2023-01-08T16:30:15.370Z,99664.50
2023-01-08T16:32:42.812Z,99660.97
2023-01-08T16:35:10.825Z,99662.97
2023-01-08T16:37:37.741Z,99657.03
2023-01-08T16:40:04.862Z,99655.63
2023-01-08T16:42:31.369Z,99656.78
2023-01-08T16:44:57.909Z,99663.28
2023-01-08T16:47:24.521Z,99657.75
2023-01-08T16:49:51.142Z,99655.91
2023-01-08T16:52:18.254Z,99651.25
2023-01-08T16:54:45.378Z,99655.63
2023-01-08T16:57:12.208Z,99648.25
2023-01-08T16:59:38.710Z,99646.25
2023-01-08T17:02:05.635Z,99650.66
2023-01-08T17:04:32.507Z,99639.88
2023-01-08T17:06:59.024Z,99639.88
2023-01-08T17:09:25.684Z,99640.59
2023-01-08T17:11:52.325Z,99635.19
2023-01-08T17:14:18.992Z,99626.97
2023-01-08T17:16:45.786Z,99622.31
2023-01-08T17:19:12.816Z,99617.63
2023-01-08T17:21:39.520Z,99613.63
2023-01-08T17:24:06.957Z,99619.56
2023-01-08T17:26:33.709Z,99611.50
2023-01-08T17:29:00.298Z,99608.66
2023-01-08T17:31:26.883Z,99595.19
2023-01-08T17:33:54.457Z,99591.81
2023-01-08T17:36:24.003Z,99590.09
2023-01-08T17:38:52.906Z,99585.88
2023-01-08T17:41:40.456Z,99585.31
2023-01-08T17:44:09.106Z,99576.00
2023-01-08T17:46:37.613Z,99579.44
2023-01-08T17:49:04.377Z,99580.88
2023-01-08T17:51:32.535Z,99573.06
2023-01-08T17:53:59.391Z,99580.59
2023-01-08T17:56:25.951Z,99571.97
2023-01-08T17:58:52.707Z,99570.53
2023-01-08T18:01:19.750Z,99570.97
2023-01-08T18:03:46.585Z,99563.81
2023-01-08T18:06:13.910Z,99562.69
2023-01-08T18:08:40.958Z,99556.06
2023-01-08T18:11:09.127Z,99547.44
2023-01-08T18:13:36.147Z,99545.03
2023-01-08T18:16:05.090Z,99544.34
2023-01-08T18:18:31.634Z,99541.09
2023-01-08T18:20:58.126Z,99542.25
2023-01-08T18:23:24.901Z,99542.25
2023-01-08T18:25:51.385Z,99538.84
2023-01-08T18:28:18.233Z,99535.31
2023-01-08T18:30:45.907Z,99534.47
2023-01-08T18:33:14.396Z,99531.94
2023-01-08T18:35:42.584Z,99542.53
2023-01-08T18:38:18.455Z,99531.94
2023-01-08T18:40:46.151Z,99530.22
2023-01-08T18:43:12.963Z,99524.84
2023-01-08T18:45:39.923Z,99520.31
2023-01-08T18:48:09.396Z,99509.44
2023-01-08T18:50:40.366Z,99507.44
2023-01-08T18:53:09.199Z,99511.69
2023-01-08T18:55:37.227Z,99504.31
2023-01-08T18:58:04.589Z,99501.47
2023-01-08T19:00:31.285Z,99503.88
2023-01-08T19:02:57.910Z,99497.50
2023-01-08T19:05:24.601Z,99495.66
2023-01-08T19:07:51.288Z,99493.81
2023-01-08T19:10:18.007Z,99490.72
2023-01-08T19:12:44.838Z,99481.41
2023-01-08T19:15:12.186Z,99476.34
2023-01-08T19:17:39.291Z,99469.41
2023-01-08T19:20:06.534Z,99468.72
2023-01-08T19:22:33.199Z,99468.00
2023-01-08T19:25:00.034Z,99467.16
2023-01-08T19:27:26.670Z,99465.31
2023-01-08T19:29:53.281Z,99464.63
2023-01-08T19:32:19.758Z,99463.63
2023-01-08T19:34:47.063Z,99465.31
2023-01-08T19:37:14.993Z,99460.66
2023-01-08T19:39:41.734Z,99446.91
2023-01-08T19:42:28.697Z,99441.25
2023-01-08T19:44:55.632Z,99440.09
2023-01-08T19:47:22.390Z,99439.09
2023-01-08T19:49:49.137Z,99435.28
2023-01-08T19:52:16.678Z,99436.53
2023-01-08T19:54:43.631Z,99434.38
2023-01-08T19:57:10.207Z,99435.09
2023-01-08T19:59:36.741Z,99429.69
2023-01-08T20:02:03.431Z,99420.66
2023-01-08T20:04:36.449Z,99408.19
2023-01-08T20:07:03.163Z,99405.81
2023-01-08T20:09:29.782Z,99410.34
2023-01-08T20:11:56.566Z,99399.59
2023-01-08T20:14:23.053Z,99393.91
2023-01-08T20:16:49.557Z,99400.97
2023-01-08T20:19:16.132Z,99392.75
2023-01-08T20:21:42.719Z,99388.09
2023-01-08T20:24:15.182Z,99388.78
2023-01-08T20:26:45.520Z,99380.56
2023-01-08T20:29:13.658Z,99376.88
2023-01-08T20:31:41.276Z,99379.25
2023-01-08T20:34:15.233Z,99378.94
2023-01-08T20:36:43.042Z,99373.44
2023-01-08T20:39:13.099Z,99365.06
2023-01-08T20:41:43.536Z,99356.00
2023-01-08T20:44:16.790Z,99361.22
2023-01-08T20:46:43.880Z,99356.69
2023-01-08T20:49:13.983Z,99355.84
2023-01-08T20:51:54.396Z,99355.69
2023-01-08T20:54:25.003Z,99352.16
2023-01-08T20:56:51.587Z,99350.31
2023-01-08T20:59:18.231Z,99353.16
2023-01-08T21:01:44.911Z,99349.75
2023-01-08T21:04:11.989Z,99346.91
2023-01-08T21:06:38.853Z,99334.00
2023-01-08T21:09:07.968Z,99336.44
2023-01-08T21:11:37.189Z,99330.91
2023-01-08T21:14:04.218Z,99324.53
2023-01-08T21:16:34.694Z,99319.97
2023-01-08T21:19:02.014Z,99319.13
2023-01-08T21:21:32.905Z,99315.75
2023-01-08T21:24:04.983Z,99322.81
2023-01-08T21:26:33.865Z,99318.56
2023-01-08T21:29:03.107Z,99309.53
2023-01-08T21:31:30.241Z,99308.38
2023-01-08T21:33:58.733Z,99307.53
2023-01-08T21:36:27.846Z,99298.47
2023-01-08T21:38:56.682Z,99291.94
2023-01-08T21:41:43.595Z,99287.25
2023-01-08T21:44:47.395Z,99283.72
2023-01-08T21:47:19.898Z,99277.63
2023-01-08T21:49:46.709Z,99278.63
2023-01-08T21:52:32.196Z,99273.41
2023-01-08T21:54:58.810Z,99268.88
2023-01-08T21:57:27.891Z,99260.81
2023-01-08T21:59:55.397Z,99255.13
2023-01-08T22:02:24.115Z,99253.28
2023-01-08T22:04:54.136Z,99249.44
2023-01-08T22:07:20.683Z,99250.44
2023-01-08T22:09:47.207Z,99243.34
2023-01-08T22:12:15.771Z,99241.50
2023-01-08T22:14:42.412Z,99237.81
2023-01-08T22:17:09.414Z,99228.59
2023-01-08T22:19:39.999Z,99226.63
2023-01-08T22:22:10.158Z,99221.94
2023-01-08T22:24:37.423Z,99224.63
2023-01-08T22:27:03.914Z,99221.78
2023-01-08T22:29:30.560Z,99213.38
2023-01-08T22:31:57.396Z,99222.84
2023-01-08T22:34:23.975Z,99228.06
2023-01-08T22:36:51.527Z,99225.22
2023-01-08T22:39:19.009Z,99236.97
2023-01-08T22:41:45.499Z,99241.19
2023-01-08T22:44:12.604Z,99232.97
2023-01-08T22:46:39.496Z,99245.41
2023-01-08T22:49:06.342Z,99237.34
2023-01-08T22:51:32.933Z,99237.03
2023-01-08T22:53:59.561Z,99234.88
2023-01-08T22:56:26.440Z,99238.09
2023-01-08T22:58:53.722Z,99240.47
2023-01-08T23:01:23.408Z,99239.44
2023-01-08T23:03:55.945Z,99243.00
2023-01-08T23:06:23.817Z,99233.38
2023-01-08T23:08:50.393Z,99240.78
2023-01-08T23:11:19.453Z,99243.78
2023-01-08T23:13:48.932Z,99239.41
2023-01-08T23:16:17.863Z,99237.72
2023-01-08T23:18:44.582Z,99243.09
2023-01-08T23:21:17.563Z,99254.88
2023-01-08T23:23:44.850Z,99269.16
2023-01-08T23:26:17.976Z,99272.00
2023-01-08T23:28:45.295Z,99282.78
2023-01-08T23:31:15.267Z,99282.63
2023-01-08T23:33:42.101Z,99277.41
2023-01-08T23:36:12.338Z,99269.63
2023-01-08T23:38:38.987Z,99279.56
2023-01-08T23:41:07.171Z,99277.88
2023-01-08T23:43:33.763Z,99284.25
2023-01-08T23:46:04.754Z,99290.47
2023-01-08T23:48:31.409Z,99293.00
2023-01-08T23:50:58.238Z,99288.47
2023-01-08T23:53:24.969Z,99288.47
2023-01-08T23:55:51.554Z,99288.47
2023-01-08T23:58:18.450Z,99295.84
